Indialantic, Florida
Current Conditions -  °F | °C
As of 12:53 PM on Monday 24 Nov 2014 (Local Time) from KMLB Reporting Station
Scattered Clouds Scattered Clouds  
Wind Chill: 86°   Ceiling: Unl
Heat Index: 93°   Visibility: 10mi
Dew Point: 73°   Wind: 15mph
Humidity: 65%   Direction: 180°S
Pressure: 29.95"   Gusts: NA
Location:  28.09°N, 80.57°W
Report Text: KMLB 241753Z 18013KT 10SM SCT027 30/23 A2995 RMK AO2 SLP141 T03000228 10306 20239 57014
Loading
Personal Weather Stations






























Interactive Weather Map New forecast layout! Learn more

10-Day Weather Forecast

Advertisements
Track Severe Weather on mobile